Current Conditions
Clear
Conditions



Pressure
1021.92 (mb) - 30.18 (inHG)
Visibility

9.0 (km) - 5.6 (miles)
Temperature
4  °C
Temperature
2  °C
Dewpoint
87  %
 Humidity
Wind Speed
13  km/h
7  kts
8  mph
3.6  m/s
Wind Direction
N
45°
E
90°
135°
S
180°
225°
W
270°
315°
 270°

Due West
Airport Data
LELN
León Airport
Metar :LELN 060200Z AUTO 27007KT 240V300 9000 NSC 04/02 Q1022
Mon 6th December 04:00 am
Raw Metar Info
Raw METAR is the most common format in the world for the transmission of observational weather data. It is highly standardized through the International Civil Aviation Organization (ICAO), which allows it to be understood throughout most of the world.
API Info
Data Provided by
https://www.checkwx.com/weather/LELN

Aviation Weather providing METAR, TAF, AIRMET, SIGMET and OUTLOOK Weather Reports
© Info
CSS/SVG/PHP scripts were developed by weather34.com for use in the weather34 template © 2015-2021

Guide Info provided by Metar-Wikipedia